Wetterstation Vordersexau
Wetterdaten: Woche 04.03.13 - 10.03.13 (KW10)
Datum Zeit Temp. A. Feuchte A. Luftdruck Regen Wind Richtung Taupunkt Windchill Windben
04.03.2013 00:00 -3,2 C 86 % 1017,7 hPa 0,0 l/m 0,0 km/h S-SO -5,2 C -3,2 C 0,0 km/h
04.03.2013 01:00 -3,5 C 86 % 1017,7 hPa 0,0 l/m 0,0 km/h S-SO -5,5 C -3,5 C 0,0 km/h
04.03.2013 02:00 -3,5 C 86 % 1017,6 hPa 0,0 l/m 0,0 km/h SO -5,5 C -3,5 C 0,0 km/h
04.03.2013 03:00 -3,7 C 86 % 1017,1 hPa 0,0 l/m 0,0 km/h SO -5,7 C -3,7 C 0,0 km/h
04.03.2013 04:00 -4,1 C 86 % 1016,8 hPa 0,0 l/m 0,0 km/h O-SO -6,1 C -4,1 C 0,0 km/h
04.03.2013 05:00 -4,4 C 86 % 1016,6 hPa 0,0 l/m 0,0 km/h O-SO -6,4 C -4,4 C 0,0 km/h
04.03.2013 06:00 -4,6 C 86 % 1016,7 hPa 0,0 l/m 0,0 km/h O-SO -6,6 C -4,6 C 0,0 km/h
04.03.2013 07:00 -5,0 C 86 % 1017,1 hPa 0,0 l/m 0,0 km/h S-SO -7,0 C -5,0 C 0,0 km/h
04.03.2013 08:00 -1,2 C 80 % 1017,0 hPa 0,0 l/m 0,0 km/h S-SO -4,2 C -1,2 C 0,0 km/h
04.03.2013 09:00 3,6 C 85 % 1017,1 hPa 0,0 l/m 0,0 km/h N-NO 1,3 C 3,6 C 0,0 km/h
04.03.2013 10:00 9,7 C 65 % 1016,9 hPa 0,0 l/m 0,0 km/h W-NW 3,4 C 9,7 C 0,0 km/h
04.03.2013 11:00 10,1 C 59 % 1016,4 hPa 0,0 l/m 0,0 km/h N-NW 2,5 C 10,1 C 0,0 km/h
04.03.2013 12:00 10,9 C 58 % 1015,8 hPa 0,0 l/m 0,0 km/h NW 3,0 C 10,9 C 0,0 km/h
04.03.2013 13:00 10,9 C 58 % 1014,9 hPa 0,0 l/m 20,7 km/h NW 3,0 C 4,2 C 11,5 km/h
04.03.2013 14:00 12,8 C 55 % 1014,3 hPa 0,0 l/m 8,4 km/h N 4,0 C 11,6 C 4,7 km/h
04.03.2013 15:00 16,2 C 46 % 1013,2 hPa 0,0 l/m 0,0 km/h N 4,6 C 16,2 C 0,0 km/h
04.03.2013 16:00 16,2 C 44 % 1012,8 hPa 0,0 l/m 5,8 km/h N-NO 3,9 C 16,2 C 3,2 km/h
04.03.2013 17:00 14,6 C 46 % 1012,9 hPa 0,0 l/m 0,0 km/h N-NO 3,1 C 14,6 C 0,0 km/h
04.03.2013 18:00 6,4 C 59 % 1013,1 hPa 0,0 l/m 0,0 km/h SO -1,0 C 6,4 C 0,0 km/h
04.03.2013 19:00 2,6 C 75 % 1013,3 hPa 0,0 l/m 0,0 km/h S-SO -1,4 C 2,6 C 0,0 km/h
04.03.2013 20:00 0,9 C 80 % 1013,3 hPa 0,0 l/m 0,0 km/h SO -2,2 C 0,9 C 0,0 km/h
04.03.2013 21:00 -0,1 C 83 % 1013,1 hPa 0,0 l/m 0,0 km/h SO -2,6 C -0,1 C 0,0 km/h
04.03.2013 22:00 -0,2 C 85 % 1012,8 hPa 0,0 l/m 0,0 km/h SO -2,4 C -0,2 C 0,0 km/h
04.03.2013 23:00 -1,4 C 85 % 1012,7 hPa 0,0 l/m 0,0 km/h S -3,6 C -1,4 C 0,0 km/h
05.03.2013 00:00 -1,3 C 85 % 1012,2 hPa 0,0 l/m 0,0 km/h S-SO -3,5 C -1,3 C 0,0 km/h
05.03.2013 01:00 -1,1 C 86 % 1012,0 hPa 0,0 l/m 0,0 km/h S-SO -3,1 C -1,1 C 0,0 km/h
05.03.2013 02:00 -1,2 C 85 % 1011,7 hPa 0,0 l/m 0,0 km/h S-SO -3,4 C -1,2 C 0,0 km/h
05.03.2013 03:00 -1,5 C 86 % 1011,2 hPa 0,0 l/m 0,0 km/h SO -3,5 C -1,5 C 0,0 km/h
05.03.2013 04:00 -2,2 C 86 % 1011,2 hPa 0,0 l/m 0,0 km/h O-SO -4,2 C -2,2 C 0,0 km/h
05.03.2013 05:00 -2,2 C 86 % 1010,8 hPa 0,0 l/m 0,0 km/h S-SW -4,2 C -2,2 C 0,0 km/h
05.03.2013 06:00 -1,9 C 85 % 1010,5 hPa 0,0 l/m 0,0 km/h O-SO -4,1 C -1,9 C 0,0 km/h
05.03.2013 07:00 -3,1 C 86 % 1010,1 hPa 0,0 l/m 0,0 km/h S-SO -5,1 C -3,1 C 0,0 km/h
05.03.2013 08:00 1,6 C 85 % 1010,4 hPa 0,0 l/m 0,0 km/h S-SO -0,6 C 1,6 C 0,0 km/h
05.03.2013 09:00 6,7 C 80 % 1010,5 hPa 0,0 l/m 0,0 km/h O-SO 3,5 C 6,7 C 0,0 km/h
05.03.2013 10:00 12,7 C 56 % 1010,0 hPa 0,0 l/m 0,0 km/h NW 4,2 C 12,7 C 0,0 km/h
05.03.2013 11:00 13,4 C 52 % 1009,6 hPa 0,0 l/m 1,9 km/h NW 3,7 C 13,4 C 1,1 km/h
05.03.2013 12:00 12,2 C 57 % 1009,2 hPa 0,0 l/m 1,3 km/h N 3,9 C 12,2 C 0,7 km/h
05.03.2013 13:00 14,2 C 51 % 1008,4 hPa 0,0 l/m 0,0 km/h N 4,2 C 14,2 C 0,0 km/h
05.03.2013 14:00 15,9 C 44 % 1007,6 hPa 0,0 l/m 0,0 km/h NO 3,7 C 15,9 C 0,0 km/h
05.03.2013 15:00 19,8 C 38 % 1006,9 hPa 0,0 l/m 0,6 km/h N 5,1 C 19,8 C 0,4 km/h
05.03.2013 16:00 15,1 C 44 % 1006,5 hPa 0,0 l/m 2,6 km/h O-NO 2,9 C 15,1 C 1,4 km/h
05.03.2013 17:00 12,4 C 49 % 1005,9 hPa 0,0 l/m 0,0 km/h S 2,0 C 12,4 C 0,0 km/h
05.03.2013 18:00 8,1 C 65 % 1005,7 hPa 0,0 l/m 0,0 km/h S 1,9 C 8,1 C 0,0 km/h
05.03.2013 19:00 6,5 C 71 % 1005,8 hPa 0,0 l/m 0,0 km/h S 1,6 C 6,5 C 0,0 km/h
05.03.2013 20:00 4,5 C 74 % 1005,7 hPa 0,0 l/m 0,0 km/h S 0,3 C 4,5 C 0,0 km/h
05.03.2013 21:00 3,4 C 79 % 1006,0 hPa 0,0 l/m 0,0 km/h O-SO 0,1 C 3,4 C 0,0 km/h
05.03.2013 22:00 2,4 C 80 % 1005,5 hPa 0,0 l/m 0,0 km/h S -0,7 C 2,4 C 0,0 km/h
05.03.2013 23:00 2,1 C 81 % 1005,2 hPa 0,0 l/m 3,9 km/h O-SO -0,8 C 2,1 C 2,2 km/h
06.03.2013 00:00 2,0 C 81 % 1005,0 hPa 0,0 l/m 0,0 km/h O-SO -0,9 C 2,0 C 0,0 km/h
06.03.2013 01:00 1,3 C 82 % 1004,6 hPa 0,0 l/m 0,0 km/h O-SO -1,4 C 1,3 C 0,0 km/h
06.03.2013 02:00 1,1 C 81 % 1004,9 hPa 0,0 l/m 0,0 km/h S -1,8 C 1,1 C 0,0 km/h
06.03.2013 03:00 0,8 C 82 % 1003,3 hPa 0,0 l/m 0,0 km/h S-SO -1,9 C 0,8 C 0,0 km/h
06.03.2013 04:00 0,6 C 83 % 1003,4 hPa 0,0 l/m 0,0 km/h S-SO -1,9 C 0,6 C 0,0 km/h
06.03.2013 05:00 1,5 C 84 % 1002,7 hPa 0,0 l/m 0,0 km/h O-SO -0,9 C 1,5 C 0,0 km/h
06.03.2013 06:00 1,2 C 83 % 1002,5 hPa 0,0 l/m 0,0 km/h O-SO -1,4 C 1,2 C 0,0 km/h
06.03.2013 07:00 0,8 C 84 % 1002,0 hPa 0,0 l/m 0,0 km/h S-SO -1,6 C 0,8 C 0,0 km/h
06.03.2013 08:00 2,0 C 84 % 1001,8 hPa 0,0 l/m 0,0 km/h O-SO -0,4 C 2,0 C 0,0 km/h
06.03.2013 09:00 4,1 C 82 % 1001,2 hPa 0,0 l/m 0,0 km/h NO 1,3 C 4,1 C 0,0 km/h
06.03.2013 10:00 7,5 C 70 % 1000,7 hPa 0,0 l/m 0,0 km/h N-NW 2,4 C 7,5 C 0,0 km/h
06.03.2013 11:00 12,3 C 60 % 1000,1 hPa 0,0 l/m 1,9 km/h NW 4,8 C 12,3 C 1,1 km/h
06.03.2013 12:00 14,9 C 55 % 999,9 hPa 0,0 l/m 0,0 km/h NO 5,9 C 14,9 C 0,0 km/h
06.03.2013 13:00 15,8 C 51 % 999,1 hPa 0,0 l/m 0,0 km/h N-NW 5,7 C 15,8 C 0,0 km/h
06.03.2013 14:00 15,8 C 48 % 998,2 hPa 0,0 l/m 0,0 km/h N 4,8 C 15,8 C 0,0 km/h
06.03.2013 15:00 14,3 C 50 % 998,2 hPa 0,0 l/m 0,0 km/h N-NW 4,0 C 14,3 C 0,0 km/h
06.03.2013 16:00 13,1 C 53 % 997,9 hPa 0,0 l/m 0,0 km/h N-NO 3,7 C 13,1 C 0,0 km/h
06.03.2013 17:00 12,7 C 56 % 997,8 hPa 0,0 l/m 0,0 km/h O 4,2 C 12,7 C 0,0 km/h
06.03.2013 18:00 8,7 C 67 % 998,0 hPa 0,0 l/m 0,0 km/h S-SO 2,9 C 8,7 C 0,0 km/h
06.03.2013 19:00 7,3 C 73 % 998,0 hPa 0,0 l/m 0,0 km/h S-SO 2,8 C 7,3 C 0,0 km/h
06.03.2013 20:00 6,6 C 76 % 998,2 hPa 0,0 l/m 0,0 km/h S-SO 2,7 C 6,6 C 0,0 km/h
06.03.2013 21:00 6,4 C 78 % 998,2 hPa 0,0 l/m 0,0 km/h S-SO 2,8 C 6,4 C 0,0 km/h
06.03.2013 22:00 5,9 C 79 % 998,4 hPa 0,0 l/m 0,0 km/h SO 2,5 C 5,9 C 0,0 km/h
06.03.2013 23:00 5,3 C 81 % 998,4 hPa 0,0 l/m 0,0 km/h S 2,3 C 5,3 C 0,0 km/h
07.03.2013 00:00 5,8 C 80 % 998,3 hPa 0,0 l/m 0,0 km/h O-SO 2,6 C 5,8 C 0,0 km/h
07.03.2013 01:00 5,6 C 80 % 998,6 hPa 0,0 l/m 0,0 km/h S 2,4 C 5,6 C 0,0 km/h
07.03.2013 02:00 5,0 C 81 % 998,5 hPa 0,0 l/m 4,5 km/h S 2,0 C 5,0 C 2,5 km/h
07.03.2013 03:00 5,4 C 81 % 997,9 hPa 0,0 l/m 0,0 km/h S 2,4 C 5,4 C 0,0 km/h
07.03.2013 04:00 5,5 C 80 % 998,1 hPa 0,0 l/m 0,0 km/h O 2,3 C 5,5 C 0,0 km/h
07.03.2013 05:00 5,6 C 79 % 998,1 hPa 0,0 l/m 0,0 km/h S-SO 2,3 C 5,6 C 0,0 km/h
07.03.2013 06:00 5,5 C 80 % 998,1 hPa 0,0 l/m 0,0 km/h S-SO 2,3 C 5,5 C 0,0 km/h
07.03.2013 07:00 5,5 C 81 % 998,5 hPa 0,0 l/m 0,0 km/h S 2,5 C 5,5 C 0,0 km/h
07.03.2013 08:00 6,8 C 80 % 998,8 hPa 0,0 l/m 1,9 km/h W-SW 3,6 C 6,8 C 1,1 km/h
07.03.2013 09:00 8,9 C 76 % 999,4 hPa 0,0 l/m 0,0 km/h O-SO 4,9 C 8,9 C 0,0 km/h
07.03.2013 10:00 10,2 C 73 % 999,5 hPa 0,0 l/m 0,0 km/h W 5,6 C 10,2 C 0,0 km/h
07.03.2013 11:00 18,6 C 56 % 999,4 hPa 0,0 l/m 0,0 km/h S 9,6 C 18,6 C 0,0 km/h
07.03.2013 12:00 16,3 C 49 % 999,4 hPa 0,0 l/m 3,2 km/h N-NW 5,6 C 16,3 C 1,8 km/h
07.03.2013 13:00 17,3 C 49 % 999,1 hPa 0,0 l/m 1,9 km/h S 6,5 C 17,3 C 1,1 km/h
07.03.2013 14:00 17,1 C 50 % 998,4 hPa 0,0 l/m 1,9 km/h W 6,6 C 17,1 C 1,1 km/h
07.03.2013 15:00 22,5 C 40 % 998,0 hPa 0,0 l/m 0,0 km/h N-NW 8,2 C 22,5 C 0,0 km/h
07.03.2013 16:00 17,3 C 48 % 997,6 hPa 0,0 l/m 8,4 km/h N-NW 6,2 C 16,3 C 4,7 km/h
07.03.2013 17:00 15,3 C 56 % 997,6 hPa 0,0 l/m 14,3 km/h S 6,6 C 11,8 C 7,9 km/h
07.03.2013 18:00 13,9 C 60 % 997,7 hPa 0,0 l/m 0,0 km/h S 6,3 C 13,9 C 0,0 km/h
07.03.2013 19:00 10,3 C 69 % 998,9 hPa 0,0 l/m 3,2 km/h O-SO 4,9 C 10,3 C 1,8 km/h
07.03.2013 20:00 9,6 C 71 % 999,3 hPa 0,0 l/m 0,0 km/h S 4,6 C 9,6 C 0,0 km/h
07.03.2013 21:00 9,4 C 72 % 998,5 hPa 0,0 l/m 1,9 km/h S-SW 4,6 C 9,4 C 1,1 km/h
07.03.2013 22:00 8,9 C 74 % 998,4 hPa 0,0 l/m 3,9 km/h S 4,5 C 8,9 C 2,2 km/h
07.03.2013 23:00 8,1 C 76 % 998,0 hPa 0,0 l/m 0,0 km/h S-SW 4,1 C 8,1 C 0,0 km/h
08.03.2013 00:00 7,9 C 76 % 997,7 hPa 0,0 l/m 5,8 km/h S-SW 3,9 C 7,9 C 3,2 km/h
08.03.2013 01:00 6,9 C 79 % 997,6 hPa 0,0 l/m 3,2 km/h S 3,5 C 6,9 C 1,8 km/h
08.03.2013 02:00 5,9 C 81 % 998,0 hPa 0,0 l/m 0,0 km/h O-SO 2,9 C 5,9 C 0,0 km/h
08.03.2013 03:00 4,9 C 83 % 997,5 hPa 0,0 l/m 2,6 km/h S 2,3 C 4,9 C 1,4 km/h
08.03.2013 04:00 4,4 C 84 % 996,9 hPa 0,0 l/m 0,0 km/h S 1,9 C 4,4 C 0,0 km/h
08.03.2013 05:00 4,3 C 84 % 996,7 hPa 0,0 l/m 0,0 km/h S-SO 1,8 C 4,3 C 0,0 km/h
08.03.2013 06:00 3,9 C 85 % 996,3 hPa 0,0 l/m 0,0 km/h O-SO 1,6 C 3,9 C 0,0 km/h
08.03.2013 07:00 4,1 C 85 % 996,4 hPa 0,0 l/m 0,0 km/h O-SO 1,8 C 4,1 C 0,0 km/h
08.03.2013 08:00 7,9 C 83 % 996,7 hPa 0,0 l/m 0,0 km/h W 5,2 C 7,9 C 0,0 km/h
08.03.2013 09:00 11,4 C 74 % 997,0 hPa 0,0 l/m 0,0 km/h O 6,9 C 11,4 C 0,0 km/h
08.03.2013 10:00 15,9 C 60 % 996,8 hPa 0,0 l/m 0,0 km/h N 8,1 C 15,9 C 0,0 km/h
08.03.2013 11:00 13,2 C 63 % 997,4 hPa 0,0 l/m 0,0 km/h N-NW 6,3 C 13,2 C 0,0 km/h
08.03.2013 12:00 14,3 C 63 % 997,9 hPa 0,0 l/m 0,0 km/h N 7,4 C 14,3 C 0,0 km/h
08.03.2013 13:00 15,1 C 60 % 997,9 hPa 0,0 l/m 0,0 km/h S-SO 7,4 C 15,1 C 0,0 km/h
08.03.2013 14:00 15,3 C 59 % 997,6 hPa 0,0 l/m 0,0 km/h W 7,3 C 15,3 C 0,0 km/h
08.03.2013 15:00 15,3 C 61 % 997,6 hPa 0,0 l/m 10,4 km/h N 7,8 C 13,3 C 5,8 km/h
08.03.2013 16:00 14,8 C 64 % 998,6 hPa 0,0 l/m 38,2 km/h N-NW 8,1 C 6,2 C 21,2 km/h
08.03.2013 17:00 13,5 C 69 % 998,9 hPa 0,0 l/m 0,0 km/h NW 7,9 C 13,5 C 0,0 km/h
08.03.2013 18:00 11,9 C 76 % 999,7 hPa 0,0 l/m 18,1 km/h W 7,8 C 6,3 C 10,1 km/h
08.03.2013 19:00 10,4 C 82 % 1000,3 hPa 0,0 l/m 0,0 km/h SW 7,5 C 10,4 C 0,0 km/h
08.03.2013 20:00 9,8 C 84 % 1000,6 hPa 0,5 l/m 1,3 km/h W-NW 7,2 C 9,8 C 0,7 km/h
08.03.2013 21:00 10,1 C 84 % 1000,7 hPa 0,5 l/m 22,0 km/h W-NW 7,5 C 2,8 C 12,2 km/h
08.03.2013 22:00 9,6 C 83 % 1001,0 hPa 0,0 l/m 21,4 km/h N-NW 6,9 C 2,3 C 11,9 km/h
08.03.2013 23:00 10,1 C 84 % 1001,5 hPa 0,0 l/m 27,9 km/h NW 7,5 C 1,3 C 15,5 km/h
09.03.2013 00:00 10,1 C 84 % 1002,1 hPa 0,0 l/m 20,7 km/h W-NW 7,5 C 3,2 C 11,5 km/h
09.03.2013 01:00 9,6 C 84 % 1001,8 hPa 0,5 l/m 0,0 km/h NW 7,0 C 9,6 C 0,0 km/h
09.03.2013 02:00 9,4 C 84 % 1002,3 hPa 0,0 l/m 0,0 km/h S-SO 6,8 C 9,4 C 0,0 km/h
09.03.2013 03:00 8,8 C 83 % 1002,0 hPa 0,5 l/m 0,0 km/h O-SO 6,1 C 8,8 C 0,0 km/h
09.03.2013 04:00 8,6 C 80 % 1002,1 hPa 0,0 l/m 0,0 km/h O-SO 5,3 C 8,6 C 0,0 km/h
09.03.2013 05:00 8,4 C 78 % 1002,1 hPa 0,0 l/m 0,0 km/h SO 4,8 C 8,4 C 0,0 km/h
09.03.2013 06:00 7,8 C 78 % 1001,9 hPa 0,0 l/m 0,0 km/h S-SO 4,2 C 7,8 C 0,0 km/h
09.03.2013 07:00 7,6 C 78 % 1001,5 hPa 0,0 l/m 0,0 km/h S 4,0 C 7,6 C 0,0 km/h
09.03.2013 08:00 10,9 C 61 % 1001,9 hPa 0,0 l/m 5,2 km/h S 3,7 C 10,9 C 2,9 km/h
09.03.2013 09:00 11,4 C 85 % 1001,8 hPa 0,0 l/m 7,1 km/h W-NW 9,0 C 10,9 C 4,0 km/h
09.03.2013 10:00 14,4 C 73 % 1001,2 hPa 0,0 l/m 16,8 km/h N-NW 9,6 C 9,9 C 9,4 km/h
09.03.2013 11:00 15,9 C 65 % 1001,2 hPa 0,0 l/m 21,4 km/h W-NW 9,3 C 10,6 C 11,9 km/h
09.03.2013 12:00 17,4 C 64 % 1001,1 hPa 0,0 l/m 7,1 km/h N-NW 10,5 C 17,1 C 4,0 km/h
09.03.2013 13:00 16,6 C 59 % 1000,7 hPa 0,0 l/m 20,7 km/h N 8,6 C 11,7 C 11,5 km/h
09.03.2013 14:00 16,1 C 60 % 1000,2 hPa 0,0 l/m 3,2 km/h N-NO 8,3 C 16,1 C 1,8 km/h
09.03.2013 15:00 12,1 C 69 % 1000,4 hPa 0,0 l/m 0,0 km/h SW 6,6 C 12,1 C 0,0 km/h
09.03.2013 16:00 11,1 C 77 % 1000,0 hPa 0,0 l/m 22,7 km/h S-SO 7,2 C 3,9 C 12,6 km/h
09.03.2013 17:00 11,1 C 75 % 1000,0 hPa 0,0 l/m 0,0 km/h S 6,8 C 11,1 C 0,0 km/h
09.03.2013 18:00 9,2 C 83 % 1000,1 hPa 0,0 l/m 15,6 km/h S 6,5 C 3,9 C 8,6 km/h
09.03.2013 19:00 9,0 C 84 % 1000,7 hPa 0,0 l/m 0,0 km/h S 6,4 C 9,0 C 0,0 km/h
09.03.2013 20:00 8,5 C 84 % 1001,0 hPa 0,0 l/m 0,0 km/h O 6,0 C 8,5 C 0,0 km/h
09.03.2013 21:00 7,7 C 84 % 1001,4 hPa 0,0 l/m 0,0 km/h SO 5,2 C 7,7 C 0,0 km/h
09.03.2013 22:00 7,5 C 83 % 1001,4 hPa 0,0 l/m 0,0 km/h S 4,8 C 7,5 C 0,0 km/h
09.03.2013 23:00 7,4 C 83 % 1001,2 hPa 0,0 l/m 0,0 km/h S-SW 4,7 C 7,4 C 0,0 km/h
10.03.2013 00:00 7,3 C 82 % 1001,0 hPa 0,0 l/m 3,2 km/h S 4,4 C 7,3 C 1,8 km/h
10.03.2013 01:00 6,7 C 83 % 1001,1 hPa 0,5 l/m 0,0 km/h S 4,0 C 6,7 C 0,0 km/h
10.03.2013 02:00 5,5 C 83 % 1000,7 hPa 0,0 l/m 0,0 km/h S 2,8 C 5,5 C 0,0 km/h
10.03.2013 03:00 5,4 C 81 % 1000,1 hPa 0,0 l/m 0,0 km/h S 2,4 C 5,4 C 0,0 km/h
10.03.2013 04:00 5,3 C 80 % 999,7 hPa 0,0 l/m 0,0 km/h S 2,1 C 5,3 C 0,0 km/h
10.03.2013 05:00 4,3 C 81 % 999,5 hPa 0,0 l/m 0,0 km/h S 1,3 C 4,3 C 0,0 km/h
10.03.2013 06:00 4,2 C 79 % 998,8 hPa 0,0 l/m 0,6 km/h S 0,9 C 4,2 C 0,4 km/h
10.03.2013 07:00 4,8 C 77 % 998,7 hPa 0,0 l/m 0,0 km/h SO 1,1 C 4,8 C 0,0 km/h
10.03.2013 08:00 6,4 C 73 % 998,5 hPa 0,0 l/m 0,0 km/h S 1,9 C 6,4 C 0,0 km/h
10.03.2013 09:00 8,9 C 81 % 998,4 hPa 0,0 l/m 0,0 km/h SW 5,8 C 8,9 C 0,0 km/h
10.03.2013 10:00 8,1 C 85 % 998,3 hPa 0,0 l/m 0,0 km/h O-SO 5,7 C 8,1 C 0,0 km/h
10.03.2013 11:00 8,2 C 85 % 998,7 hPa 0,0 l/m 0,0 km/h W-SW 5,8 C 8,2 C 0,0 km/h
10.03.2013 12:00 8,1 C 85 % 998,5 hPa 1,0 l/m 0,0 km/h W-SW 5,7 C 8,1 C 0,0 km/h
10.03.2013 13:00 12,3 C 77 % 998,0 hPa 0,0 l/m 2,6 km/h W 8,4 C 12,3 C 1,4 km/h
10.03.2013 14:00 12,8 C 74 % 997,3 hPa 0,0 l/m 0,0 km/h SW 8,3 C 12,8 C 0,0 km/h
10.03.2013 15:00 10,1 C 80 % 997,0 hPa 0,5 l/m 13,0 km/h O-SO 6,8 C 6,1 C 7,2 km/h
10.03.2013 16:00 12,3 C 78 % 996,9 hPa 1,0 l/m 0,0 km/h S-SO 8,6 C 12,3 C 0,0 km/h
10.03.2013 17:00 10,9 C 76 % 996,6 hPa 0,0 l/m 0,0 km/h W 6,8 C 10,9 C 0,0 km/h
10.03.2013 18:00 8,9 C 82 % 997,2 hPa 0,0 l/m 0,0 km/h SO 6,0 C 8,9 C 0,0 km/h
10.03.2013 19:00 7,4 C 85 % 998,2 hPa 0,0 l/m 0,0 km/h SO 5,0 C 7,4 C 0,0 km/h
10.03.2013 20:00 6,4 C 84 % 997,9 hPa 0,0 l/m 0,0 km/h S-SO 3,9 C 6,4 C 0,0 km/h
10.03.2013 21:00 4,8 C 84 % 997,7 hPa 0,0 l/m 0,0 km/h O-SO 2,3 C 4,8 C 0,0 km/h
10.03.2013 22:00 3,9 C 83 % 997,9 hPa 0,0 l/m 0,0 km/h SO 1,3 C 3,9 C 0,0 km/h
10.03.2013 23:00 3,1 C 83 % 998,0 hPa 0,0 l/m 0,0 km/h S 0,5 C 3,1 C 0,0 km/h
Min-Datum _ 04.03.13 05.03.13 08.03.13 - 04.03.13 - 04.03.13 04.03.13 04.03.13
_ Min-Zeit 07:19 15:19 06:19 - 00:19 - 07:19 07:19 00:19
Minimum _ -5,0 C 38 % 996,3 hPa - 0,0 km/h - -7,0 C -5,0 C 0,0 km/h
Max-Datum _ 07.03.13 04.03.13 04.03.13 10.03.13 08.03.13 - 09.03.13 07.03.13 08.03.13
_ Max-Zeit 15:19 00:19 00:19 12:19 16:19 - 12:19 15:19 16:19
Maximum _ 22,5 C 86 % 1017,7 hPa 1,0 l/m 38,2 km/h
N-NW
- 10,5 C 22,5 C 21,2 km/h
N-NW
Durchschnitt _ 7,8 C 74 % 1003,0 hPa #5,2 l/m 2,4 km/h S 3,1 C 7,2 C 1,3 km/h
www.sexauwetter.de